createdAt,value
2023-01-29T00:01:56.506Z,83.85
2023-01-29T00:04:23.948Z,84.21
2023-01-29T00:06:50.667Z,84.21
2023-01-29T00:09:17.430Z,84.35
2023-01-29T00:11:44.174Z,84.18
2023-01-29T00:14:10.869Z,84.32
2023-01-29T00:16:37.539Z,84.36
2023-01-29T00:19:04.460Z,84.44
2023-01-29T00:21:32.234Z,85.42
2023-01-29T00:24:00.190Z,85.32
2023-01-29T00:26:27.659Z,85.45
2023-01-29T00:28:55.111Z,85.42
2023-01-29T00:31:24.131Z,85.41
2023-01-29T00:33:51.123Z,85.60
2023-01-29T00:36:20.399Z,85.95
2023-01-29T00:38:54.795Z,86.78
2023-01-29T00:41:40.487Z,86.84
2023-01-29T00:44:26.641Z,86.86
2023-01-29T00:46:53.505Z,87.82
2023-01-29T00:49:20.511Z,88.34
2023-01-29T00:52:09.815Z,88.23
2023-01-29T00:54:37.128Z,89.15
2023-01-29T00:57:04.405Z,89.63
2023-01-29T00:59:31.274Z,89.41
2023-01-29T01:02:16.554Z,89.03
2023-01-29T01:04:43.175Z,89.67
2023-01-29T01:09:55.694Z,91.23
2023-01-29T01:12:23.074Z,91.08
2023-01-29T01:14:50.081Z,90.97
2023-01-29T01:17:17.140Z,90.82
2023-01-29T01:19:43.882Z,91.09
2023-01-29T01:22:11.083Z,91.50
2023-01-29T01:24:38.409Z,91.46
2023-01-29T01:27:05.270Z,91.05
2023-01-29T01:29:31.986Z,90.75
2023-01-29T01:31:59.330Z,90.69
2023-01-29T01:34:27.209Z,90.91
2023-01-29T01:36:55.990Z,91.03
2023-01-29T01:39:23.605Z,90.65
2023-01-29T01:41:50.542Z,90.25
2023-01-29T01:44:53.005Z,91.18
2023-01-29T01:47:41.824Z,91.35
2023-01-29T01:50:12.000Z,91.56
2023-01-29T01:52:44.103Z,91.39
2023-01-29T01:55:13.642Z,91.17
2023-01-29T01:57:43.639Z,91.22
2023-01-29T02:00:14.270Z,90.49
2023-01-29T02:03:05.165Z,90.43
2023-01-29T02:05:53.085Z,90.92
2023-01-29T02:09:01.611Z,91.18
2023-01-29T02:11:28.191Z,90.81
2023-01-29T02:13:54.805Z,91.01
2023-01-29T02:16:22.121Z,90.24
2023-01-29T02:18:49.944Z,90.94
2023-01-29T02:22:00.932Z,90.91
2023-01-29T02:24:58.224Z,91.41
2023-01-29T02:27:39.635Z,91.31
2023-01-29T02:30:26.202Z,91.17
2023-01-29T02:33:14.262Z,91.43
2023-01-29T02:35:50.932Z,92.26
2023-01-29T02:38:43.583Z,92.49
2023-01-29T02:41:22.315Z,93.51
2023-01-29T02:44:01.296Z,93.48
2023-01-29T02:46:39.814Z,93.84
2023-01-29T02:49:21.635Z,94.58
2023-01-29T02:52:04.438Z,95.01
2023-01-29T02:54:51.247Z,95.04
2023-01-29T02:57:30.771Z,95.31
2023-01-29T03:00:18.010Z,95.63
2023-01-29T03:03:02.250Z,95.30
2023-01-29T03:05:35.230Z,95.05
2023-01-29T03:08:08.092Z,95.64
2023-01-29T03:10:43.938Z,95.24
2023-01-29T03:13:22.978Z,95.25
2023-01-29T03:16:01.532Z,95.02
2023-01-29T03:18:33.331Z,95.90
2023-01-29T03:21:26.625Z,95.74
2023-01-29T03:24:14.694Z,96.40
2023-01-29T03:27:02.571Z,96.34
2023-01-29T03:29:53.672Z,96.58
2023-01-29T03:32:23.929Z,96.54
2023-01-29T03:34:57.492Z,96.54
2023-01-29T03:37:35.071Z,96.25
2023-01-29T03:40:07.037Z,96.74
2023-01-29T03:42:51.810Z,96.87
2023-01-29T03:45:24.517Z,96.72
2023-01-29T03:48:12.204Z,96.09
2023-01-29T03:50:44.811Z,96.46
2023-01-29T03:53:37.635Z,96.01
2023-01-29T03:56:12.685Z,95.74
2023-01-29T03:59:04.446Z,95.94
2023-01-29T04:01:48.670Z,96.28
2023-01-29T04:04:22.041Z,96.36
2023-01-29T04:06:53.132Z,96.48
2023-01-29T04:09:27.806Z,96.56
2023-01-29T04:12:03.767Z,96.65
2023-01-29T04:14:31.968Z,96.87
2023-01-29T04:17:02.892Z,96.18
2023-01-29T04:19:29.735Z,95.85
2023-01-29T04:22:13.960Z,95.67
2023-01-29T04:24:42.365Z,95.58
2023-01-29T04:27:15.101Z,95.18
2023-01-29T04:30:19.994Z,95.32
2023-01-29T04:33:05.502Z,95.11
2023-01-29T04:35:54.844Z,95.12
2023-01-29T04:38:32.208Z,95.03
2023-01-29T04:41:04.218Z,94.95
2023-01-29T04:43:41.768Z,95.18
2023-01-29T04:46:28.197Z,95.19
2023-01-29T04:49:01.352Z,95.36
2023-01-29T04:51:35.698Z,94.80
2023-01-29T04:54:27.443Z,94.81
2023-01-29T04:57:14.849Z,94.26
2023-01-29T04:59:47.330Z,94.42
2023-01-29T05:02:14.600Z,94.60
2023-01-29T05:04:44.628Z,94.24
2023-01-29T05:07:15.116Z,94.29
2023-01-29T05:09:45.241Z,94.46
2023-01-29T05:12:14.904Z,94.41
2023-01-29T05:14:44.964Z,95.06
2023-01-29T05:17:20.668Z,95.21
2023-01-29T05:19:47.639Z,94.75
2023-01-29T05:22:17.888Z,94.49
2023-01-29T05:24:44.964Z,94.71
2023-01-29T05:27:37.258Z,94.74
2023-01-29T05:30:04.413Z,94.52
2023-01-29T05:32:31.086Z,93.97
2023-01-29T05:34:57.743Z,94.23
2023-01-29T05:37:24.573Z,94.39
2023-01-29T05:39:51.259Z,93.82
2023-01-29T05:42:17.877Z,94.36
2023-01-29T05:44:44.508Z,94.36
2023-01-29T05:47:11.104Z,94.07
2023-01-29T05:49:38.850Z,94.62
2023-01-29T05:52:05.596Z,94.05
2023-01-29T05:54:32.306Z,94.65
2023-01-29T05:56:58.964Z,94.26
2023-01-29T05:59:25.892Z,94.36
2023-01-29T06:01:52.537Z,93.87
2023-01-29T06:04:19.452Z,94.44
2023-01-29T06:06:46.072Z,94.45
2023-01-29T06:09:12.985Z,94.41
2023-01-29T06:11:39.856Z,93.96
2023-01-29T06:14:06.665Z,93.75
2023-01-29T06:16:33.438Z,94.41
2023-01-29T06:19:00.476Z,94.18
2023-01-29T06:21:27.226Z,94.50
2023-01-29T06:23:54.244Z,93.96
2023-01-29T06:26:21.337Z,93.93
2023-01-29T06:28:51.426Z,94.09
2023-01-29T06:31:37.820Z,93.91
2023-01-29T06:34:05.629Z,93.76
2023-01-29T06:36:32.314Z,93.92
2023-01-29T06:38:59.155Z,94.19
2023-01-29T06:41:26.017Z,94.23
2023-01-29T06:43:53.156Z,94.16
2023-01-29T06:46:20.042Z,93.95
2023-01-29T06:48:46.829Z,94.16
2023-01-29T06:51:13.586Z,93.48
2023-01-29T06:53:40.335Z,93.73
2023-01-29T06:56:07.754Z,93.69
2023-01-29T06:58:37.845Z,93.77
2023-01-29T07:01:06.515Z,93.86
2023-01-29T07:03:33.224Z,93.77
2023-01-29T07:05:59.915Z,93.38
2023-01-29T07:08:26.746Z,94.01
2023-01-29T07:10:53.445Z,93.56
2023-01-29T07:13:20.111Z,93.68
2023-01-29T07:15:46.768Z,94.09
2023-01-29T07:18:13.461Z,94.19
2023-01-29T07:20:41.463Z,94.10
2023-01-29T07:23:11.853Z,94.10
2023-01-29T07:25:38.844Z,94.33
2023-01-29T07:28:06.421Z,94.00
2023-01-29T07:30:33.603Z,94.08
2023-01-29T07:33:09.061Z,93.90
2023-01-29T07:35:41.120Z,94.39
2023-01-29T07:38:09.775Z,93.88
2023-01-29T07:40:36.786Z,93.94
2023-01-29T07:43:06.544Z,92.98
2023-01-29T07:45:37.720Z,93.84
2023-01-29T07:48:05.888Z,93.00
2023-01-29T07:50:34.339Z,93.17
2023-01-29T07:53:01.502Z,93.14
2023-01-29T07:55:28.255Z,93.33
2023-01-29T07:57:59.594Z,92.85
2023-01-29T08:00:27.054Z,92.57
2023-01-29T08:02:53.808Z,92.51
2023-01-29T08:05:20.747Z,92.40
2023-01-29T08:08:05.744Z,92.32
2023-01-29T08:10:33.770Z,92.02
2023-01-29T08:13:01.985Z,92.11
2023-01-29T08:15:29.362Z,91.65
2023-01-29T08:17:58.066Z,91.87
2023-01-29T08:20:25.725Z,91.00
2023-01-29T08:23:00.338Z,90.87
2023-01-29T08:25:27.668Z,91.15
2023-01-29T08:27:54.658Z,90.97
2023-01-29T08:30:21.383Z,90.26
2023-01-29T08:32:47.995Z,90.52
2023-01-29T08:35:14.781Z,89.52
2023-01-29T08:37:41.393Z,89.92
2023-01-29T08:40:10.925Z,90.18
2023-01-29T08:42:37.554Z,90.02
2023-01-29T08:45:04.688Z,90.21
2023-01-29T08:47:31.323Z,89.58
2023-01-29T08:49:57.918Z,87.86
2023-01-29T08:52:24.825Z,89.62
2023-01-29T08:54:51.439Z,89.24
2023-01-29T08:57:18.083Z,89.29
2023-01-29T08:59:44.737Z,88.46
2023-01-29T09:02:12.121Z,88.75
2023-01-29T09:04:38.815Z,88.41
2023-01-29T09:07:05.422Z,87.51
2023-01-29T09:09:32.100Z,87.92
2023-01-29T09:11:58.952Z,88.69
2023-01-29T09:14:25.651Z,88.56
2023-01-29T09:16:52.326Z,88.47
2023-01-29T09:19:18.983Z,88.31
2023-01-29T09:21:45.675Z,88.01
2023-01-29T09:24:12.268Z,87.89
2023-01-29T09:26:40.279Z,87.04
2023-01-29T09:29:09.398Z,87.61
2023-01-29T09:31:36.140Z,87.42
2023-01-29T09:34:02.998Z,87.61
2023-01-29T09:36:29.630Z,86.70
2023-01-29T09:38:56.318Z,86.31
2023-01-29T09:41:49.468Z,86.33
2023-01-29T09:44:25.383Z,86.41
2023-01-29T09:46:54.925Z,86.25
2023-01-29T09:49:37.894Z,86.43
2023-01-29T09:52:17.677Z,85.67
2023-01-29T09:55:05.758Z,85.82
2023-01-29T09:57:48.499Z,85.45
2023-01-29T10:00:20.589Z,83.32
2023-01-29T10:03:26.744Z,83.19
2023-01-29T10:06:21.208Z,83.38
2023-01-29T10:09:06.451Z,84.73
2023-01-29T10:11:55.785Z,83.89
2023-01-29T10:14:44.969Z,83.69
2023-01-29T10:17:11.587Z,84.17
2023-01-29T10:20:03.566Z,83.34
2023-01-29T10:22:39.098Z,83.39
2023-01-29T10:25:12.901Z,83.18
2023-01-29T10:27:50.946Z,83.08
2023-01-29T10:30:31.995Z,82.42
2023-01-29T10:33:03.465Z,82.87
2023-01-29T10:35:53.795Z,82.70
2023-01-29T10:38:28.432Z,82.93
2023-01-29T10:41:18.356Z,82.27
2023-01-29T10:44:04.966Z,82.04
2023-01-29T10:46:40.347Z,82.87
2023-01-29T10:49:30.055Z,82.95
2023-01-29T10:52:05.377Z,83.16
2023-01-29T10:55:08.680Z,83.86
2023-01-29T10:57:41.893Z,81.89
2023-01-29T11:00:21.589Z,82.52
2023-01-29T11:02:50.462Z,83.02
2023-01-29T11:05:35.208Z,83.24
2023-01-29T11:08:24.177Z,82.38
2023-01-29T11:11:09.639Z,82.29
2023-01-29T11:13:42.275Z,82.58
2023-01-29T11:16:10.065Z,82.16
2023-01-29T11:18:57.121Z,81.94
2023-01-29T11:21:25.779Z,81.89
2023-01-29T11:24:17.398Z,81.77
2023-01-29T11:26:46.627Z,81.81
2023-01-29T11:29:48.301Z,81.59
2023-01-29T11:32:26.185Z,81.60
2023-01-29T11:34:58.602Z,80.54
2023-01-29T11:37:36.685Z,81.39
2023-01-29T11:40:36.660Z,81.24
2023-01-29T11:43:13.916Z,80.94
2023-01-29T11:45:40.933Z,81.00
2023-01-29T11:48:15.896Z,81.89
2023-01-29T11:50:43.064Z,80.95
2023-01-29T11:53:59.887Z,80.50
2023-01-29T11:56:31.822Z,80.52
2023-01-29T11:58:59.034Z,80.57
2023-01-29T12:01:36.787Z,78.06
2023-01-29T12:04:14.122Z,78.74
2023-01-29T12:06:48.497Z,78.88
2023-01-29T12:09:21.372Z,78.64
2023-01-29T12:11:48.181Z,77.88
2023-01-29T12:14:29.443Z,77.98
2023-01-29T12:16:58.834Z,78.64
2023-01-29T12:19:34.400Z,77.13
2023-01-29T12:22:11.114Z,77.21
2023-01-29T12:24:52.909Z,78.06
2023-01-29T12:27:31.114Z,77.80
2023-01-29T12:30:16.942Z,77.92
2023-01-29T12:32:56.788Z,78.32
2023-01-29T12:35:30.772Z,78.29
2023-01-29T12:38:18.648Z,77.74
2023-01-29T12:40:57.759Z,77.40
2023-01-29T12:43:32.897Z,78.15
2023-01-29T12:46:02.337Z,78.67
2023-01-29T12:48:33.816Z,78.64
2023-01-29T12:51:10.339Z,78.94
2023-01-29T12:53:57.312Z,78.52
2023-01-29T12:56:34.231Z,79.13
2023-01-29T12:59:04.917Z,79.14
2023-01-29T13:01:41.689Z,78.51
2023-01-29T13:04:41.944Z,79.25
2023-01-29T13:07:15.057Z,79.21
2023-01-29T13:09:46.313Z,79.29
2023-01-29T13:12:21.703Z,78.13
2023-01-29T13:14:56.383Z,78.59
2023-01-29T13:17:43.753Z,78.84
2023-01-29T13:20:17.658Z,79.99
2023-01-29T13:22:46.669Z,79.50
2023-01-29T13:25:18.551Z,79.82
2023-01-29T13:27:47.746Z,80.03
2023-01-29T13:30:43.662Z,77.04
2023-01-29T13:33:23.197Z,79.26
2023-01-29T13:35:59.396Z,78.11
2023-01-29T13:38:29.791Z,77.35
2023-01-29T13:41:01.858Z,77.02
2023-01-29T13:43:41.433Z,76.38
2023-01-29T13:46:17.851Z,73.72
2023-01-29T13:48:48.475Z,76.71
2023-01-29T13:51:20.379Z,75.68
2023-01-29T13:54:02.256Z,73.73
2023-01-29T13:56:28.851Z,73.75
2023-01-29T13:58:57.371Z,71.99
2023-01-29T14:02:04.170Z,72.94
2023-01-29T14:04:32.675Z,71.33
2023-01-29T14:07:03.224Z,72.50
2023-01-29T14:09:36.855Z,72.54
2023-01-29T14:12:05.176Z,73.05
2023-01-29T14:14:56.716Z,73.22
2023-01-29T14:17:25.888Z,72.67
2023-01-29T14:19:58.045Z,74.33
2023-01-29T14:22:27.964Z,73.52
2023-01-29T14:24:58.254Z,73.84
2023-01-29T14:27:25.858Z,74.41
2023-01-29T14:30:00.875Z,73.90
2023-01-29T14:32:28.019Z,74.59
2023-01-29T14:35:01.354Z,74.21
2023-01-29T14:37:38.866Z,74.20
2023-01-29T14:40:20.910Z,73.16
2023-01-29T14:43:07.395Z,75.23
2023-01-29T14:45:44.824Z,75.92
2023-01-29T14:48:11.412Z,76.33
2023-01-29T14:50:41.609Z,76.70
2023-01-29T14:53:34.254Z,76.94
2023-01-29T14:56:18.519Z,76.04
2023-01-29T14:58:49.514Z,76.91
2023-01-29T15:01:23.558Z,76.70
2023-01-29T15:03:51.898Z,76.53
2023-01-29T15:06:37.962Z,77.89
2023-01-29T15:09:36.541Z,77.41
2023-01-29T15:12:29.999Z,77.76
2023-01-29T15:15:18.602Z,77.94
2023-01-29T15:17:58.211Z,78.02
2023-01-29T15:20:50.698Z,79.72
2023-01-29T15:23:32.377Z,78.43
2023-01-29T15:26:01.871Z,79.12
2023-01-29T15:28:34.255Z,78.83
2023-01-29T15:31:07.764Z,78.16
2023-01-29T15:33:38.676Z,78.73
2023-01-29T15:36:07.708Z,79.06
2023-01-29T15:38:35.016Z,78.88
2023-01-29T15:41:04.452Z,78.81
2023-01-29T15:43:43.317Z,78.68
2023-01-29T15:46:25.040Z,79.59
2023-01-29T15:48:53.997Z,79.13
2023-01-29T15:51:26.999Z,79.68
2023-01-29T15:53:56.700Z,80.06
2023-01-29T15:56:43.173Z,80.15
2023-01-29T15:59:17.691Z,79.89
2023-01-29T16:01:44.431Z,80.52
2023-01-29T16:04:17.138Z,79.61
2023-01-29T16:06:44.094Z,80.61
2023-01-29T16:09:19.079Z,80.56
2023-01-29T16:11:47.606Z,80.44
2023-01-29T16:14:19.061Z,80.18
2023-01-29T16:16:45.827Z,80.74
2023-01-29T16:19:28.254Z,81.10
2023-01-29T16:22:01.378Z,80.91
2023-01-29T16:24:31.218Z,81.00
2023-01-29T16:27:02.024Z,81.20
2023-01-29T16:29:33.816Z,81.19
2023-01-29T16:32:02.485Z,81.20
2023-01-29T16:34:35.000Z,81.18
2023-01-29T16:37:04.920Z,81.08
2023-01-29T16:39:38.630Z,81.48
2023-01-29T16:42:12.341Z,81.43
2023-01-29T16:44:46.120Z,81.55
2023-01-29T16:47:13.949Z,82.23
2023-01-29T16:49:40.506Z,82.88
2023-01-29T16:52:25.389Z,81.94
2023-01-29T16:54:53.548Z,82.73
2023-01-29T16:57:24.943Z,82.42
2023-01-29T16:59:59.165Z,82.99
2023-01-29T17:02:30.390Z,83.10
2023-01-29T17:05:27.276Z,83.11
2023-01-29T17:07:56.986Z,83.13
2023-01-29T17:10:24.830Z,82.99
2023-01-29T17:12:57.542Z,83.22
2023-01-29T17:15:43.219Z,83.40
2023-01-29T17:18:21.624Z,83.18
2023-01-29T17:20:48.912Z,82.97
2023-01-29T17:23:15.542Z,82.87
2023-01-29T17:25:42.382Z,83.40
2023-01-29T17:28:12.984Z,83.32
2023-01-29T17:30:39.949Z,83.23
2023-01-29T17:33:17.857Z,83.63
2023-01-29T17:35:45.475Z,83.56
2023-01-29T17:38:24.286Z,83.09
2023-01-29T17:41:07.395Z,82.96
2023-01-29T17:43:34.719Z,82.96
2023-01-29T17:46:01.517Z,83.99
2023-01-29T17:48:30.115Z,83.58
2023-01-29T17:51:00.810Z,83.39
2023-01-29T17:53:43.310Z,83.11
2023-01-29T17:56:17.078Z,83.09
2023-01-29T17:58:44.217Z,83.90
2023-01-29T18:01:11.125Z,82.94
2023-01-29T18:03:37.833Z,82.23
2023-01-29T18:06:07.752Z,82.56
2023-01-29T18:08:36.910Z,82.09
2023-01-29T18:11:04.006Z,81.43
2023-01-29T18:13:30.885Z,81.47
2023-01-29T18:15:57.476Z,81.53
2023-01-29T18:18:24.577Z,81.64
2023-01-29T18:20:51.422Z,82.15
2023-01-29T18:23:18.022Z,81.68
2023-01-29T18:25:44.894Z,82.19
2023-01-29T18:28:17.251Z,82.57
2023-01-29T18:30:47.040Z,83.18
2023-01-29T18:33:15.151Z,82.58
2023-01-29T18:35:43.176Z,82.23
2023-01-29T18:38:09.906Z,81.67
2023-01-29T18:40:36.608Z,82.02
2023-01-29T18:43:04.307Z,82.12
2023-01-29T18:45:31.645Z,82.06
2023-01-29T18:47:58.388Z,81.69
2023-01-29T18:50:26.449Z,81.17
2023-01-29T18:52:54.425Z,81.47
2023-01-29T18:55:21.863Z,80.79
2023-01-29T18:58:28.511Z,80.71
2023-01-29T19:00:39.488Z,80.88
2023-01-29T19:03:06.143Z,81.16
2023-01-29T19:05:33.926Z,80.85
2023-01-29T19:08:01.906Z,81.21
2023-01-29T19:10:28.778Z,81.35
2023-01-29T19:12:55.388Z,80.81
2023-01-29T19:15:22.947Z,81.19
2023-01-29T19:17:53.089Z,81.89
2023-01-29T19:20:20.263Z,81.24
2023-01-29T19:22:47.047Z,81.98
2023-01-29T19:25:13.784Z,81.78
2023-01-29T19:27:40.397Z,81.89
2023-01-29T19:30:08.902Z,81.61
2023-01-29T19:32:35.819Z,82.28
2023-01-29T19:35:02.461Z,81.47
2023-01-29T19:37:30.890Z,82.51
2023-01-29T19:39:57.631Z,82.66
2023-01-29T19:42:24.327Z,82.50
2023-01-29T19:44:52.166Z,82.43
2023-01-29T19:47:18.987Z,82.46
2023-01-29T19:49:45.684Z,82.60
2023-01-29T19:52:49.805Z,81.76
2023-01-29T19:55:17.674Z,82.44
2023-01-29T19:57:44.589Z,82.75
2023-01-29T20:00:15.555Z,82.47
2023-01-29T20:02:42.272Z,82.30
2023-01-29T20:05:12.049Z,83.02
2023-01-29T20:07:41.171Z,83.09
2023-01-29T20:10:11.396Z,82.96
2023-01-29T20:12:38.629Z,83.55
2023-01-29T20:15:07.264Z,83.13
2023-01-29T20:17:34.014Z,83.37
2023-01-29T20:20:00.621Z,83.67
2023-01-29T20:22:27.259Z,83.38
2023-01-29T20:24:54.377Z,83.72
2023-01-29T20:27:21.089Z,83.27
2023-01-29T20:29:47.704Z,83.62
2023-01-29T20:32:14.792Z,83.23
2023-01-29T20:34:41.849Z,83.12
2023-01-29T20:37:08.522Z,83.46
2023-01-29T20:39:35.111Z,84.34
2023-01-29T20:42:01.759Z,83.58
2023-01-29T20:44:28.445Z,83.89
2023-01-29T20:46:55.104Z,83.44
2023-01-29T20:49:21.868Z,84.01
2023-01-29T20:51:48.505Z,83.86
2023-01-29T20:54:15.250Z,83.50
2023-01-29T20:56:44.180Z,84.08
2023-01-29T20:59:13.083Z,83.53
2023-01-29T21:01:39.721Z,83.85
2023-01-29T21:04:06.350Z,84.54
2023-01-29T21:06:33.053Z,84.29
2023-01-29T21:08:59.668Z,84.73
2023-01-29T21:11:26.408Z,84.26
2023-01-29T21:13:57.555Z,84.81
2023-01-29T21:16:26.334Z,84.87
2023-01-29T21:18:59.331Z,84.90
2023-01-29T21:21:26.813Z,85.38
2023-01-29T21:23:54.179Z,85.28
2023-01-29T21:26:21.580Z,85.08
2023-01-29T21:28:48.237Z,85.04
2023-01-29T21:31:16.943Z,85.41
2023-01-29T21:33:44.391Z,85.78
2023-01-29T21:36:11.772Z,85.71
2023-01-29T21:38:39.076Z,84.52
2023-01-29T21:41:08.922Z,85.16
2023-01-29T21:43:36.592Z,84.87
2023-01-29T21:46:11.361Z,84.71
2023-01-29T21:48:39.412Z,84.53
2023-01-29T21:51:06.765Z,84.81
2023-01-29T21:53:33.591Z,83.83
2023-01-29T21:56:05.037Z,83.69
2023-01-29T21:58:31.779Z,84.16
2023-01-29T22:01:18.560Z,84.18
2023-01-29T22:03:47.161Z,84.04
2023-01-29T22:06:14.137Z,84.18
2023-01-29T22:08:40.752Z,84.60
2023-01-29T22:11:07.807Z,84.78
2023-01-29T22:13:34.630Z,84.92
2023-01-29T22:16:01.235Z,84.26
2023-01-29T22:18:27.947Z,84.18
2023-01-29T22:20:56.261Z,84.32
2023-01-29T22:23:24.122Z,84.12
2023-01-29T22:25:50.899Z,84.35
2023-01-29T22:28:18.410Z,84.82
2023-01-29T22:30:45.233Z,84.97
2023-01-29T22:33:12.336Z,84.58
2023-01-29T22:35:38.903Z,85.31
2023-01-29T22:38:05.830Z,85.10
2023-01-29T22:40:32.431Z,84.72
2023-01-29T22:42:59.110Z,85.06
2023-01-29T22:45:25.721Z,85.11
2023-01-29T22:47:52.336Z,84.82
2023-01-29T22:50:19.345Z,85.63
2023-01-29T22:52:54.205Z,85.75
2023-01-29T22:55:21.149Z,85.13
2023-01-29T22:57:51.266Z,85.63
2023-01-29T23:00:18.793Z,85.76
2023-01-29T23:02:49.632Z,85.48
2023-01-29T23:05:17.323Z,85.83
2023-01-29T23:07:44.656Z,86.11
2023-01-29T23:10:15.705Z,86.55
2023-01-29T23:12:42.555Z,86.33
2023-01-29T23:15:09.408Z,86.92
2023-01-29T23:17:36.088Z,86.57
2023-01-29T23:20:03.680Z,87.41
2023-01-29T23:22:30.362Z,87.31
2023-01-29T23:24:56.993Z,87.38
2023-01-29T23:27:23.708Z,87.71
2023-01-29T23:29:50.347Z,87.94
2023-01-29T23:32:19.362Z,87.90
2023-01-29T23:34:46.205Z,88.10
2023-01-29T23:37:13.226Z,88.61
2023-01-29T23:39:39.889Z,89.49
2023-01-29T23:42:06.494Z,90.67
2023-01-29T23:44:33.100Z,92.23
2023-01-29T23:46:59.797Z,92.07
2023-01-29T23:49:26.495Z,92.55
2023-01-29T23:51:53.536Z,93.42
2023-01-29T23:54:20.246Z,92.93
2023-01-29T23:56:46.897Z,93.50
2023-01-29T23:59:13.650Z,94.07
